createdAt,value
2024-02-17T00:03:30.268Z,8.17
2024-02-17T00:08:32.166Z,8.17
2024-02-17T00:13:38.355Z,8.12
2024-02-17T00:18:40.361Z,8.12
2024-02-17T00:23:45.206Z,8.04
2024-02-17T00:28:47.414Z,8.02
2024-02-17T00:33:54.168Z,8.04
2024-02-17T00:38:56.192Z,8.09
2024-02-17T00:43:58.138Z,8.10
2024-02-17T00:49:02.731Z,8.09
2024-02-17T00:54:04.945Z,8.05
2024-02-17T00:59:07.169Z,8.00
2024-02-17T01:04:09.502Z,7.99
2024-02-17T01:09:15.043Z,7.97
2024-02-17T01:14:22.680Z,7.96
2024-02-17T01:19:24.699Z,7.97
2024-02-17T01:24:26.731Z,7.97
2024-02-17T01:29:30.860Z,7.92
2024-02-17T01:34:35.207Z,7.90
2024-02-17T01:39:39.474Z,7.87
2024-02-17T01:44:43.583Z,7.86
2024-02-17T01:49:48.480Z,7.77
2024-02-17T01:54:51.076Z,7.73
2024-02-17T01:59:58.058Z,7.68
2024-02-17T02:05:02.289Z,7.64
2024-02-17T02:10:07.169Z,7.61
2024-02-17T02:15:14.412Z,7.57
2024-02-17T02:20:17.485Z,7.54
2024-02-17T02:25:26.753Z,7.58
2024-02-17T02:30:28.931Z,7.57
2024-02-17T02:35:30.714Z,7.55
2024-02-17T02:40:32.642Z,7.58
2024-02-17T02:45:35.147Z,7.58
2024-02-17T02:50:37.498Z,7.58
2024-02-17T02:55:41.861Z,7.57
2024-02-17T03:00:46.160Z,7.58
2024-02-17T03:05:50.514Z,7.59
2024-02-17T03:10:52.383Z,7.55
2024-02-17T03:15:58.809Z,7.39
2024-02-17T03:21:00.624Z,7.24
2024-02-17T03:26:02.480Z,7.19
2024-02-17T03:31:06.697Z,7.12
2024-02-17T03:36:08.753Z,7.03
2024-02-17T03:41:10.481Z,6.92
2024-02-17T03:46:15.284Z,6.86
2024-02-17T03:51:19.511Z,6.84
2024-02-17T03:56:21.436Z,6.84
2024-02-17T04:01:25.912Z,6.87
2024-02-17T04:06:31.502Z,6.82
2024-02-17T04:11:35.589Z,6.77
2024-02-17T04:16:37.399Z,6.67
2024-02-17T04:21:39.513Z,6.67
2024-02-17T04:26:43.981Z,6.63
2024-02-17T04:31:45.877Z,6.65
2024-02-17T04:36:47.871Z,6.64
2024-02-17T04:41:49.715Z,6.62
2024-02-17T04:46:51.511Z,6.57
2024-02-17T04:51:55.595Z,6.60
2024-02-17T04:57:00.491Z,6.60
2024-02-17T05:02:02.555Z,6.61
2024-02-17T05:07:06.659Z,6.59
2024-02-17T05:12:11.074Z,6.57
2024-02-17T05:17:16.090Z,6.54
2024-02-17T05:22:20.142Z,6.54
2024-02-17T05:27:24.308Z,6.54
2024-02-17T05:32:28.672Z,6.48
2024-02-17T05:37:39.307Z,6.27
2024-02-17T05:42:45.172Z,6.23
2024-02-17T05:47:47.243Z,5.91
2024-02-17T05:52:50.963Z,5.63
2024-02-17T05:57:55.336Z,5.37
2024-02-17T06:02:58.272Z,5.22
2024-02-17T06:08:00.167Z,5.05
2024-02-17T06:13:06.400Z,4.94
2024-02-17T06:18:27.039Z,4.82
2024-02-17T06:23:29.654Z,4.74
2024-02-17T06:28:35.336Z,4.62
2024-02-17T06:33:39.602Z,4.52
2024-02-17T06:38:43.335Z,4.43
2024-02-17T06:43:45.832Z,4.33
2024-02-17T06:48:52.896Z,4.33
2024-02-17T06:53:58.587Z,4.36
2024-02-17T06:59:00.563Z,4.63
2024-02-17T07:04:05.933Z,4.92
2024-02-17T07:09:08.524Z,5.13
2024-02-17T07:14:13.503Z,5.30
2024-02-17T07:19:19.281Z,5.46
2024-02-17T07:24:24.188Z,5.63
2024-02-17T07:29:26.625Z,5.78
2024-02-17T07:34:29.026Z,5.87
2024-02-17T07:39:31.930Z,5.95
2024-02-17T07:44:37.620Z,6.05
2024-02-17T07:49:40.237Z,6.16
2024-02-17T07:54:44.860Z,6.28
2024-02-17T07:59:47.411Z,6.41
2024-02-17T08:04:49.741Z,6.47
2024-02-17T08:09:51.879Z,6.57
2024-02-17T08:14:56.947Z,6.70
2024-02-17T08:20:01.966Z,6.77
2024-02-17T08:25:10.842Z,6.86
2024-02-17T08:30:16.767Z,6.94
2024-02-17T08:35:24.800Z,7.04
2024-02-17T08:40:27.397Z,7.12
2024-02-17T08:45:30.693Z,7.27
2024-02-17T08:50:35.171Z,7.46
2024-02-17T08:55:38.086Z,7.57
2024-02-17T09:00:40.753Z,7.64
2024-02-17T09:05:45.914Z,7.64
2024-02-17T09:10:51.082Z,7.74
2024-02-17T09:15:53.386Z,7.79
2024-02-17T09:20:58.099Z,7.92
2024-02-17T09:26:03.828Z,8.05
2024-02-17T09:31:07.231Z,8.16
2024-02-17T09:36:09.725Z,8.13
2024-02-17T09:41:12.288Z,8.15
2024-02-17T09:46:14.774Z,8.24
2024-02-17T09:51:20.944Z,8.20
2024-02-17T09:56:26.146Z,8.17
2024-02-17T10:01:29.144Z,8.25
2024-02-17T10:06:34.406Z,8.30
2024-02-17T10:11:37.986Z,8.45
2024-02-17T10:16:40.985Z,8.67
2024-02-17T10:21:43.978Z,8.93
2024-02-17T10:26:52.235Z,9.07
2024-02-17T10:31:54.364Z,9.18
2024-02-17T10:36:57.328Z,9.13
2024-02-17T10:42:02.111Z,9.15
2024-02-17T10:47:04.207Z,9.20
2024-02-17T10:52:12.410Z,9.28
2024-02-17T10:57:15.784Z,9.38
2024-02-17T11:02:19.976Z,9.46
2024-02-17T11:07:24.957Z,9.69
2024-02-17T11:12:30.450Z,9.62
2024-02-17T11:23:02.078Z,9.92
2024-02-17T11:28:19.163Z,9.92
2024-02-17T11:33:28.535Z,9.99
2024-02-17T11:38:32.096Z,10.03
2024-02-17T11:43:37.480Z,10.05
2024-02-17T11:48:41.982Z,10.52
2024-02-17T11:53:47.278Z,10.99
2024-02-17T11:58:54.773Z,11.32
2024-02-17T12:03:58.739Z,11.35
2024-02-17T12:09:01.447Z,11.13
2024-02-17T12:14:04.426Z,12.16
2024-02-17T12:19:11.143Z,11.61
2024-02-17T12:24:15.731Z,11.39
2024-02-17T12:29:20.585Z,12.69
2024-02-17T12:34:33.740Z,12.63
2024-02-17T12:39:38.436Z,11.91
2024-02-17T12:44:41.830Z,11.72
2024-02-17T12:49:43.998Z,11.83
2024-02-17T12:54:46.454Z,12.80
2024-02-17T12:59:48.496Z,13.67
2024-02-17T13:04:50.295Z,13.22
2024-02-17T13:09:55.981Z,13.47
2024-02-17T13:15:00.642Z,13.79
2024-02-17T13:20:06.135Z,14.21
2024-02-17T13:25:08.450Z,15.43
2024-02-17T13:30:14.746Z,15.95
2024-02-17T13:35:20.613Z,16.49
2024-02-17T13:40:25.529Z,17.24
2024-02-17T13:45:27.442Z,18.14
2024-02-17T13:50:29.973Z,17.84
2024-02-17T13:55:36.815Z,18.48
2024-02-17T14:00:44.942Z,18.94
2024-02-17T14:05:52.042Z,19.32
2024-02-17T14:10:54.256Z,19.12
2024-02-17T14:15:56.336Z,19.62
2024-02-17T14:21:06.427Z,19.68
2024-02-17T14:26:09.058Z,19.61
2024-02-17T14:31:11.093Z,19.91
2024-02-17T14:36:13.714Z,19.88
2024-02-17T14:41:18.026Z,19.58
2024-02-17T14:46:22.488Z,19.62
2024-02-17T14:51:24.707Z,19.44
2024-02-17T14:56:26.852Z,19.17
2024-02-17T15:01:29.169Z,18.15
2024-02-17T15:06:31.730Z,17.21
2024-02-17T15:11:34.439Z,16.44
2024-02-17T15:16:36.984Z,15.66
2024-02-17T15:21:38.905Z,14.57
2024-02-17T15:26:41.010Z,14.11
2024-02-17T15:31:45.355Z,13.65
2024-02-17T15:36:49.635Z,13.45
2024-02-17T15:41:52.860Z,13.18
2024-02-17T15:46:59.503Z,12.82
2024-02-17T15:52:04.276Z,12.55
2024-02-17T15:57:06.492Z,12.21
2024-02-17T16:02:11.000Z,11.83
2024-02-17T16:07:16.053Z,11.48
2024-02-17T16:12:19.689Z,11.23
2024-02-17T16:17:22.813Z,11.06
2024-02-17T16:22:24.939Z,10.80
2024-02-17T16:27:27.425Z,10.58
2024-02-17T16:32:29.706Z,10.14
2024-02-17T16:37:34.585Z,9.90
2024-02-17T16:42:37.733Z,9.69
2024-02-17T16:47:41.775Z,10.07
2024-02-17T16:52:43.829Z,9.43
2024-02-17T16:57:46.206Z,9.92
2024-02-17T17:02:48.019Z,9.22
2024-02-17T17:07:49.865Z,8.81
2024-02-17T17:12:51.751Z,8.57
2024-02-17T17:17:53.654Z,8.35
2024-02-17T17:22:57.996Z,8.19
2024-02-17T17:27:59.909Z,8.65
2024-02-17T17:33:04.468Z,8.07
2024-02-17T17:38:08.586Z,7.83
2024-02-17T17:43:11.561Z,7.60
2024-02-17T17:48:16.490Z,7.54
2024-02-17T17:53:18.846Z,7.44
2024-02-17T17:58:20.711Z,7.34
2024-02-17T18:03:24.322Z,7.15
2024-02-17T18:08:27.812Z,7.06
2024-02-17T18:13:29.897Z,7.08
2024-02-17T18:18:32.655Z,6.95
2024-02-17T18:23:42.448Z,6.83
2024-02-17T18:28:45.176Z,6.85
2024-02-17T18:33:49.885Z,7.06
2024-02-17T18:38:52.174Z,7.17
2024-02-17T18:43:57.813Z,7.38
2024-02-17T18:48:59.749Z,7.54
2024-02-17T18:54:05.448Z,7.63
2024-02-17T18:59:10.209Z,7.69
2024-02-17T19:04:13.759Z,7.70
2024-02-17T19:09:15.761Z,7.77
2024-02-17T19:14:17.640Z,7.81
2024-02-17T19:19:21.950Z,7.81
2024-02-17T19:24:27.835Z,7.83
2024-02-17T19:29:29.935Z,7.83
2024-02-17T19:34:34.248Z,7.77
2024-02-17T19:39:36.902Z,7.78
2024-02-17T19:44:42.149Z,7.79
2024-02-17T19:49:44.249Z,7.75
2024-02-17T19:54:48.700Z,7.73
2024-02-17T19:59:50.711Z,7.67
2024-02-17T20:04:52.934Z,7.64
2024-02-17T20:09:57.254Z,7.63
2024-02-17T20:14:59.277Z,7.60
2024-02-17T20:20:02.490Z,7.54
2024-02-17T20:25:14.498Z,7.52
2024-02-17T20:30:16.892Z,7.45
2024-02-17T20:35:21.382Z,7.43
2024-02-17T20:40:28.466Z,7.45
2024-02-17T20:45:30.796Z,7.44
2024-02-17T20:50:35.189Z,7.40
2024-02-17T20:55:40.370Z,7.35
2024-02-17T21:00:42.353Z,7.33
2024-02-17T21:05:49.475Z,7.34
2024-02-17T21:10:53.939Z,7.26
2024-02-17T21:15:55.936Z,7.24
2024-02-17T21:20:57.889Z,7.20
2024-02-17T21:26:02.341Z,7.22
2024-02-17T21:31:07.316Z,7.19
2024-02-17T21:36:11.257Z,7.16
2024-02-17T21:41:13.490Z,7.17
2024-02-17T21:46:17.796Z,7.21
2024-02-17T21:51:19.773Z,7.14
2024-02-17T21:56:21.667Z,6.98
2024-02-17T22:01:26.019Z,6.90
2024-02-17T22:06:30.014Z,6.85
2024-02-17T22:11:31.958Z,6.84
2024-02-17T22:16:35.350Z,6.85
2024-02-17T22:21:40.105Z,6.87
2024-02-17T22:26:44.464Z,6.89
2024-02-17T22:31:48.752Z,6.88
2024-02-17T22:36:50.543Z,6.86
2024-02-17T22:41:56.322Z,6.90
2024-02-17T22:46:58.533Z,6.83
2024-02-17T22:52:00.528Z,6.81
2024-02-17T22:57:02.845Z,6.84
2024-02-17T23:02:04.714Z,6.82
2024-02-17T23:07:07.323Z,6.81
2024-02-17T23:12:11.418Z,6.82
2024-02-17T23:17:13.464Z,6.71
2024-02-17T23:22:15.335Z,6.66
2024-02-17T23:27:18.193Z,6.72
2024-02-17T23:32:20.238Z,6.74
2024-02-17T23:37:25.069Z,6.70
2024-02-17T23:42:26.943Z,6.71
2024-02-17T23:47:30.973Z,6.77
2024-02-17T23:52:38.642Z,6.81
2024-02-17T23:57:40.939Z,6.82
